Historyczne dane pomiarowe

Dodano dane terminowe – wersja testowa.

Dane z okresu 1951-2018

Wersja bazy: 1.29 [2019-01-10, lista zmian], aktualizacja planowana na 2019-02-07

Dane meteo z obszaru Polski uzyskane na podstawie danych udostępnionych przez Instytut Meteorologii i Gospodarki Wodnej – Państwowy Instytut Badawczy.

 

Wybierz Datę:    

       

TemperaturaWilgotnośćWiatrCiśnienieOpadyŚniegCzas trwania zjawisk
 Stacja t tx tn tng RH VA  wxwx mslp ppp RRR   cm mm wxwxwxwxwxwxwx
1967-12-13 -9.3 -5.7-16.7-17.2 87.3- 8.0 1.0---- 0.6-- 5---------
1967-12-14 -7.7 -3.2-12.8 -6.0 86.5- 7.7 0.7---- 0.0-- 8---------
1967-12-15 -6.8 -4.3-11.0-11.0 86.3- 8.0 0.3---- 0.0-- 7---------
1967-12-16 -6.4 -3.5-12.5-13.6 82.0- 6.7 1.0---- 3.6-- 6---------
1967-12-17 -3.5 -0.6 -7.4 -5.4 79.0- 6.7 1.3---- 2.9-- 12---------
1967-12-18 -4.1 -0.6 -9.9-10.0 78.0- 7.3 1.0---- 1.0-- 18---------
1967-12-19 -4.8 -2.5 -9.5 -8.5 79.5- 6.0 4.0---- 2.0-- 16---------
1967-12-20 -8.5 -2.8-12.8 -4.0 72.3- 6.3 4.3---- 1.5-- 20---------
1967-12-21 -7.0 -6.5-19.2-25.5 91.3- 8.0 2.7---- 4.0-- 25---------
1967-12-22 -8.6 -6.1-10.3-10.4 88.5- 8.0 1.0---- 10.0-- 35---------
1967-12-23 -3.9 -2.8 -8.4 -8.0 91.0- 8.0 0.0---- 0.5-- 36---------
1967-12-24 1.6 5.6 -2.9 -3.2 92.3- 5.7 0.7---- 0.6-- 30---------
1967-12-25 0.6 3.2 -2.7 -6.1 90.8- 8.0 0.3---- 4.9-- 24---------
1967-12-26 1.2 2.4 0.2 -0.2 91.8- 8.0 0.0---- 3.6-- 20---------
1967-12-27 -2.1 1.5 -5.3 -0.5 88.5- 5.0 0.0---- 0.0-- 18---------
1967-12-28-14.0 -4.9-16.6-16.0 89.8- 3.0 0.0---- 0.0-- 18---------
1967-12-29-12.5 -6.9-20.6-24.6 90.5- 1.3 0.3---- 0.1-- 18---------
1967-12-30 -3.7 -2.0-11.3-13.5 89.5- 8.0 0.0---- 2.7-- 18---------
1967-12-31 -4.4 -2.0 -7.2 -9.6 90.0- 5.3 0.3---- 0.0-- 20---------
1968-01-01 -4.5 -1.2-14.1-15.0 86.8- 6.0 1.3---- 4.3-- 20---------
1968-01-02 -7.3 -0.5-12.8 -3.3 79.0- 5.7 2.3---- 0.0-- 24---------
1968-01-03 -7.6 -3.0-20.0-24.1 86.8- 6.3 0.7---- 0.2-- 23---------
1968-01-04-12.7 -3.3-19.7-11.5 82.8- 5.0 0.0---- 1.5-- 24---------
1968-01-05 -7.0 -3.3-21.7-24.5 89.8- 7.3 0.3---- 0.2-- 29---------
1968-01-06 -5.4 -2.8-14.7-16.1 91.5- 8.0 2.7---- 4.8-- 30---------
1968-01-07 -7.0 -2.0-14.4 -9.2 78.5- 4.7 2.0---- 0.1-- 35---------
1968-01-08-11.1 -7.7-13.3-16.6 69.5- 6.0 1.3---- 0.2-- 35---------
1968-01-09-12.5 -8.5-15.8-19.5 78.3- 5.7 1.3---- 0.1-- 36---------
1968-01-10-24.5-13.4-28.3-28.0 84.0- 0.3 0.3---- 0.0-- 36---------
1968-01-11-22.0-14.3-32.1-36.4 76.8- 2.7 0.0---- 0.0-- 36---------
3239.8 ms

 

Źródłem pochodzenia danych jest Instytut Meteorologii i Gospodarki Wodnej – Państwowy Instytut Badawczy. Dane Instytutu Meteorologii i Gospodarki Wodnej – Państwowego Instytutu Badawczego zostały przetworzone.

Dane źródłowe można odnaleźć na stronie https://dane.imgw.pl